KOJC/OJC METAR and TAF weather

Enter ICAO airport designator
Station Type Date Time Source
KOJC METAR 2020/01/21 08:53 UTC NOAA

KOJC 210853Z AUTO 00000KT 10SM CLR M13/M16 A3061 RMK AO2 SLP386 T11331156 58005


Station Type Date Time Source
KOJC Decoded METAR 2020/01/21 08:53 UTC NOAA

OLATHE JOHNSON CO EXECUTIVE, KS, United States (KOJC) 38-50N 94-44W 326M
Jan 21, 2020 - 03:53 AM EST / 2020.01.21 0853 UTC
Wind: Calm:0
Visibility: 10 mile(s):0
Sky conditions: clear
Temperature: 8.1 F (-13.3 C)
Dew Point: 3.9 F (-15.6 C)
Relative Humidity: 82%
Pressure (altimeter): 30.61 in. Hg (1036 hPa)
Pressure tendency: 0.01 inches (0.5 hPa) lower than three hours ago
ob: KOJC 210853Z AUTO 00000KT 10SM CLR M13/M16 A3061 RMK AO2 SLP386 T11331156 58005
cycle: 9

Station Type Date Time Source
KOJC TAF UTC NOAA

Error!

Example: see airport list